Time;durP1;ratioP1;P1;durP2;ratioP2;P2;SDS_P1;SDS_P2;PMS_P1;PMS_P2;Temp;Humidity;BMP_temperature;BMP_pressure;BME280_temperature;BME280_humidity;BME280_pressure;Samples;Min_cycle;Max_cycle;Signal;HPM_P1;HPM_P2
2023/04/06 00:00:08;;;;;;;;;;;10.90;99.90;;;;;;5143155;27;19907;-61
2023/04/06 00:02:34;;;;;;;;;;;11.00;99.90;;;;;;5142767;27;19926;-60
2023/04/06 00:05:00;;;;;;;;;;;11.00;99.90;;;;;;5142625;27;19911;-61
2023/04/06 00:07:26;;;;;;;;;;;11.10;99.90;;;;;;5142635;27;20002;-61
2023/04/06 00:09:51;;;;;;;;;;;11.10;99.90;;;;;;5143032;27;19918;-61
2023/04/06 00:12:17;;;;;;;;;;;11.10;99.90;;;;;;5143127;27;19954;-61
2023/04/06 00:14:42;;;;;;;;;;;11.10;99.90;;;;;;5142288;27;19908;-61
2023/04/06 00:17:08;;;;;;;;;;;11.20;99.90;;;;;;5142803;27;19943;-61
2023/04/06 00:19:34;;;;;;;;;;;11.30;99.90;;;;;;5142529;27;19911;-61
2023/04/06 00:22:02;;;;;;;;;;;11.30;99.90;;;;;;5142418;27;19911;-61
2023/04/06 00:24:27;;;;;;;;;;;11.30;99.90;;;;;;5142446;27;19907;-61
2023/04/06 00:26:53;;;;;;;;;;;11.40;99.90;;;;;;5141994;27;19969;-61
2023/04/06 00:29:18;;;;;;;;;;;11.40;99.90;;;;;;5142553;27;19907;-61
2023/04/06 00:31:44;;;;;;;;;;;11.40;99.90;;;;;;5142064;27;19907;-61
2023/04/06 00:34:10;;;;;;;;;;;11.50;99.90;;;;;;5142461;27;19907;-61
2023/04/06 00:36:36;;;;;;;;;;;11.60;99.90;;;;;;5141755;27;20366;-61
2023/04/06 00:39:02;;;;;;;;;;;11.50;99.90;;;;;;5141775;27;19908;-61
2023/04/06 00:41:27;;;;;;;;;;;11.50;99.90;;;;;;5142222;27;19915;-61
2023/04/06 00:43:53;;;;;;;;;;;11.50;99.90;;;;;;5142238;27;19991;-61
2023/04/06 00:46:19;;;;;;;;;;;11.50;99.90;;;;;;5141797;27;19911;-61
2023/04/06 00:48:45;;;;;;;;;;;11.50;99.90;;;;;;5141655;27;20003;-61
2023/04/06 00:51:10;;;;;;;;;;;11.50;99.90;;;;;;5141734;27;19914;-61
2023/04/06 00:53:36;;;;;;;;;;;11.60;99.90;;;;;;5141641;27;19907;-61
2023/04/06 00:56:02;;;;;;;;;;;11.60;99.90;;;;;;5141858;27;19954;-61
2023/04/06 00:58:27;;;;;;;;;;;11.60;99.90;;;;;;5141394;27;20003;-61
2023/04/06 01:00:53;;;;;;;;;;;11.60;99.90;;;;;;5141712;27;19908;-61
2023/04/06 01:03:19;;;;;;;;;;;11.60;99.90;;;;;;5141535;27;19908;-61
2023/04/06 01:05:44;;;;;;;;;;;11.50;99.90;;;;;;5141822;27;20376;-61
2023/04/06 01:08:10;;;;;;;;;;;11.70;99.90;;;;;;5141338;27;19914;-60
2023/04/06 01:10:36;;;;;;;;;;;11.60;99.90;;;;;;5141641;27;19914;-61
2023/04/06 01:13:01;;;;;;;;;;;11.70;99.90;;;;;;5141651;27;19908;-61
2023/04/06 01:15:28;;;;;;;;;;;11.70;99.90;;;;;;5141556;27;19914;-61
2023/04/06 01:17:53;;;;;;;;;;;11.60;99.90;;;;;;5141330;27;19918;-61
2023/04/06 01:20:19;;;;;;;;;;;11.70;99.90;;;;;;5141470;27;19952;-61
2023/04/06 01:22:45;;;;;;;;;;;11.70;99.90;;;;;;5141276;27;19915;-61
2023/04/06 01:25:10;;;;;;;;;;;11.70;99.90;;;;;;5141236;27;19908;-61
2023/04/06 01:27:36;;;;;;;;;;;11.70;99.90;;;;;;5140826;27;19919;-61
2023/04/06 01:30:02;;;;;;;;;;;11.70;99.90;;;;;;5140843;27;19908;-61
2023/04/06 01:32:28;;;;;;;;;;;11.70;99.90;;;;;;5140919;27;19908;-61
2023/04/06 01:34:54;;;;;;;;;;;11.70;99.90;;;;;;5140763;27;20002;-61
2023/04/06 01:37:20;;;;;;;;;;;11.70;99.90;;;;;;5140803;27;19953;-61
2023/04/06 01:39:46;;;;;;;;;;;11.70;99.90;;;;;;5141100;27;19908;-61
2023/04/06 01:42:11;;;;;;;;;;;11.70;99.90;;;;;;5140475;27;19915;-61
2023/04/06 01:44:37;;;;;;;;;;;11.70;99.90;;;;;;5140635;27;20009;-61
2023/04/06 01:47:02;;;;;;;;;;;11.70;99.90;;;;;;5140987;27;20267;-61
2023/04/06 01:49:28;;;;;;;;;;;11.70;99.90;;;;;;5140525;27;20003;-61
2023/04/06 01:51:54;;;;;;;;;;;11.60;99.90;;;;;;5140007;27;20351;-61
2023/04/06 01:54:19;;;;;;;;;;;11.70;99.90;;;;;;5140689;27;19911;-61
2023/04/06 01:56:45;;;;;;;;;;;11.70;99.90;;;;;;5140405;27;19908;-61
2023/04/06 01:59:11;;;;;;;;;;;11.70;99.90;;;;;;5140512;27;19962;-61
2023/04/06 02:01:37;;;;;;;;;;;11.70;99.90;;;;;;5140072;27;19908;-61
2023/04/06 02:04:02;;;;;;;;;;;11.70;99.90;;;;;;5140238;27;19957;-61
2023/04/06 02:06:28;;;;;;;;;;;11.80;99.90;;;;;;5140604;27;20386;-61
2023/04/06 02:08:54;;;;;;;;;;;11.60;99.90;;;;;;5140302;27;20362;-61
2023/04/06 02:11:19;;;;;;;;;;;11.80;99.90;;;;;;5140472;27;19912;-61
2023/04/06 02:13:45;;;;;;;;;;;11.80;99.90;;;;;;5140269;27;19907;-61
2023/04/06 02:16:10;;;;;;;;;;;11.80;99.90;;;;;;5140050;27;19908;-61
2023/04/06 02:18:36;;;;;;;;;;;11.80;99.90;;;;;;5140401;27;19908;-61
2023/04/06 02:21:02;;;;;;;;;;;11.80;99.90;;;;;;5139958;27;20366;-61
2023/04/06 02:23:27;;;;;;;;;;;11.80;99.90;;;;;;5139817;27;19961;-61
2023/04/06 02:25:53;;;;;;;;;;;11.80;99.90;;;;;;5139733;27;19915;-61
2023/04/06 02:28:19;;;;;;;;;;;11.90;99.90;;;;;;5139656;27;19943;-61
2023/04/06 02:30:44;;;;;;;;;;;11.80;99.90;;;;;;5139925;27;19914;-61
2023/04/06 02:33:10;;;;;;;;;;;11.80;99.90;;;;;;5139910;27;19907;-61
2023/04/06 02:35:35;;;;;;;;;;;11.80;99.90;;;;;;5139870;27;19907;-61
2023/04/06 02:38:01;;;;;;;;;;;11.80;99.90;;;;;;5139704;27;19951;-61
2023/04/06 02:40:27;;;;;;;;;;;11.80;99.90;;;;;;5139800;27;19956;-61
2023/04/06 02:42:52;;;;;;;;;;;11.80;99.90;;;;;;5139843;27;19908;-61
2023/04/06 02:45:18;;;;;;;;;;;11.80;99.90;;;;;;5139492;27;19942;-61
2023/04/06 02:47:44;;;;;;;;;;;11.80;99.90;;;;;;5139683;27;19915;-61
2023/04/06 02:50:10;;;;;;;;;;;11.80;99.90;;;;;;5139376;27;19930;-61
2023/04/06 02:52:35;;;;;;;;;;;11.80;99.90;;;;;;5139602;27;19907;-61
2023/04/06 02:55:01;;;;;;;;;;;11.80;99.90;;;;;;5139898;27;20345;-61
2023/04/06 02:57:26;;;;;;;;;;;11.80;99.90;;;;;;5139360;27;19929;-61
2023/04/06 02:59:52;;;;;;;;;;;11.80;99.90;;;;;;5139531;27;19908;-61
2023/04/06 03:02:18;;;;;;;;;;;11.80;99.90;;;;;;5139676;27;19907;-61
2023/04/06 03:04:44;;;;;;;;;;;11.80;99.90;;;;;;5139212;27;19911;-61
2023/04/06 03:07:10;;;;;;;;;;;11.70;99.90;;;;;;5139392;27;19933;-61
2023/04/06 03:09:39;;;;;;;;;;;11.70;99.90;;;;;;5139164;28;19908;-61
2023/04/06 03:12:05;;;;;;;;;;;11.70;99.90;;;;;;5139368;28;19995;-61
2023/04/06 03:14:30;;;;;;;;;;;11.80;99.90;;;;;;5139251;28;19958;-61
2023/04/06 03:16:56;;;;;;;;;;;11.80;99.90;;;;;;5139161;28;19908;-61
2023/04/06 03:19:22;;;;;;;;;;;11.70;99.90;;;;;;5139631;28;19914;-61
2023/04/06 03:21:47;;;;;;;;;;;11.80;99.90;;;;;;5139122;28;19908;-61
2023/04/06 03:24:13;;;;;;;;;;;11.70;99.90;;;;;;5139161;28;19907;-61
2023/04/06 03:26:39;;;;;;;;;;;11.70;99.90;;;;;;5138733;28;19919;-61
2023/04/06 03:29:05;;;;;;;;;;;11.70;99.90;;;;;;5139053;28;20263;-61
2023/04/06 03:31:30;;;;;;;;;;;11.70;99.90;;;;;;5120501;28;19914;-61
2023/04/06 03:33:56;;;;;;;;;;;11.70;99.90;;;;;;5138909;28;19907;-60
2023/04/06 03:36:22;;;;;;;;;;;11.80;99.90;;;;;;5139034;28;19915;-61
2023/04/06 03:38:47;;;;;;;;;;;11.70;99.90;;;;;;5139342;28;19990;-61
2023/04/06 03:41:13;;;;;;;;;;;11.70;99.90;;;;;;5139301;28;20290;-61
2023/04/06 03:43:38;;;;;;;;;;;11.70;99.90;;;;;;5139007;28;19915;-61
2023/04/06 03:46:04;;;;;;;;;;;11.60;99.90;;;;;;5138807;28;20425;-61
2023/04/06 03:48:30;;;;;;;;;;;11.70;99.90;;;;;;5138783;28;19914;-61
2023/04/06 03:50:56;;;;;;;;;;;11.70;99.90;;;;;;5139305;28;20309;-61
2023/04/06 03:53:21;;;;;;;;;;;11.70;99.90;;;;;;5139029;28;19907;-61
2023/04/06 03:55:47;;;;;;;;;;;11.70;99.90;;;;;;5138978;28;19998;-61
2023/04/06 03:58:12;;;;;;;;;;;11.70;99.90;;;;;;5138981;28;19914;-61
2023/04/06 04:00:38;;;;;;;;;;;11.70;99.90;;;;;;5139020;28;19990;-61
2023/04/06 04:03:04;;;;;;;;;;;11.80;99.90;;;;;;5138662;28;20396;-61
2023/04/06 04:05:29;;;;;;;;;;;11.80;99.90;;;;;;5138878;28;19908;-61
2023/04/06 04:07:55;;;;;;;;;;;11.80;99.90;;;;;;5138923;28;20394;-61
2023/04/06 04:10:21;;;;;;;;;;;11.80;99.90;;;;;;5138836;28;19908;-61
2023/04/06 04:12:46;;;;;;;;;;;11.90;99.90;;;;;;5139138;28;19908;-61
2023/04/06 04:15:12;;;;;;;;;;;11.80;99.90;;;;;;5141007;27;20005;-61
2023/04/06 04:17:38;;;;;;;;;;;11.80;99.90;;;;;;5142679;27;19914;-61
2023/04/06 04:20:03;;;;;;;;;;;11.90;99.90;;;;;;5142533;27;19919;-61
2023/04/06 04:22:29;;;;;;;;;;;11.90;99.90;;;;;;5142299;27;19911;-61
2023/04/06 04:24:54;;;;;;;;;;;11.90;99.90;;;;;;5142391;27;19911;-61
2023/04/06 04:27:20;;;;;;;;;;;11.90;99.90;;;;;;5142184;27;19919;-61
2023/04/06 04:29:46;;;;;;;;;;;12.00;99.90;;;;;;5142063;27;19914;-61
2023/04/06 04:32:12;;;;;;;;;;;12.00;99.90;;;;;;5142265;27;19931;-61
2023/04/06 04:34:40;;;;;;;;;;;12.00;99.90;;;;;;5141956;27;19938;-61
2023/04/06 04:37:05;;;;;;;;;;;12.00;99.90;;;;;;5142023;27;19907;-61
2023/04/06 04:39:31;;;;;;;;;;;12.00;99.90;;;;;;5142163;27;19914;-61
2023/04/06 04:41:57;;;;;;;;;;;12.00;99.90;;;;;;5142085;27;20289;-61
2023/04/06 04:44:23;;;;;;;;;;;12.00;99.90;;;;;;5141779;27;19950;-61
2023/04/06 04:46:48;;;;;;;;;;;12.00;99.90;;;;;;5141804;27;19950;-61
2023/04/06 04:49:14;;;;;;;;;;;12.00;99.90;;;;;;5142167;27;19911;-61
2023/04/06 04:51:40;;;;;;;;;;;12.10;99.90;;;;;;5141898;27;19915;-61
2023/04/06 04:54:05;;;;;;;;;;;12.10;99.90;;;;;;5141672;27;19908;-61
2023/04/06 04:56:31;;;;;;;;;;;12.10;99.90;;;;;;5141809;27;19907;-61
2023/04/06 04:58:56;;;;;;;;;;;12.20;99.90;;;;;;5142005;27;19908;-61
2023/04/06 05:01:22;;;;;;;;;;;12.10;99.90;;;;;;5141761;27;19908;-61
2023/04/06 05:03:48;;;;;;;;;;;12.20;99.90;;;;;;5141647;27;20001;-60
2023/04/06 05:06:13;;;;;;;;;;;12.20;99.90;;;;;;5141554;27;19912;-61
2023/04/06 05:08:39;;;;;;;;;;;12.20;99.90;;;;;;5141777;27;19907;-61
2023/04/06 05:11:05;;;;;;;;;;;12.20;99.90;;;;;;5141672;27;19915;-61
2023/04/06 05:13:31;;;;;;;;;;;12.10;99.90;;;;;;5141283;27;19908;-60
2023/04/06 05:15:56;;;;;;;;;;;12.20;99.90;;;;;;5141068;27;20282;-61
2023/04/06 05:18:22;;;;;;;;;;;12.20;99.90;;;;;;5141218;27;19907;-61
2023/04/06 05:20:48;;;;;;;;;;;12.30;99.90;;;;;;5141495;27;20363;-61
2023/04/06 05:23:13;;;;;;;;;;;12.20;99.90;;;;;;5141313;27;19907;-61
2023/04/06 05:25:39;;;;;;;;;;;12.20;99.90;;;;;;5140083;27;19938;-61
2023/04/06 05:28:05;;;;;;;;;;;12.20;99.90;;;;;;5140878;27;19965;-61
2023/04/06 05:30:31;;;;;;;;;;;12.20;99.90;;;;;;5141438;27;20372;-61
2023/04/06 05:32:56;;;;;;;;;;;12.30;99.90;;;;;;5140956;27;19929;-61
2023/04/06 05:35:22;;;;;;;;;;;12.30;99.90;;;;;;5140761;27;19915;-61
2023/04/06 05:37:48;;;;;;;;;;;12.30;99.90;;;;;;5140840;27;19915;-61
2023/04/06 05:40:13;;;;;;;;;;;12.30;99.90;;;;;;5141002;27;19907;-61
2023/04/06 05:42:44;;;;;;;;;;;12.30;99.90;;;;;;5140894;27;19914;-61
2023/04/06 05:45:16;;;;;;;;;;;12.30;99.90;;;;;;5140853;27;19953;-61
2023/04/06 05:47:42;;;;;;;;;;;12.30;99.90;;;;;;5122028;27;19968;-61
2023/04/06 05:50:08;;;;;;;;;;;12.30;99.90;;;;;;5140820;27;19907;-61
2023/04/06 05:52:33;;;;;;;;;;;12.40;99.90;;;;;;5140714;27;20382;-61
2023/04/06 05:54:59;;;;;;;;;;;12.40;99.90;;;;;;5140639;27;20007;-61
2023/04/06 05:57:24;;;;;;;;;;;12.30;99.90;;;;;;5140330;27;19908;-61
2023/04/06 05:59:50;;;;;;;;;;;12.30;99.90;;;;;;5140530;27;19907;-61
2023/04/06 06:02:16;;;;;;;;;;;12.30;99.90;;;;;;5140567;27;19912;-61
2023/04/06 06:04:41;;;;;;;;;;;12.30;99.90;;;;;;5140247;27;19908;-61
2023/04/06 06:07:07;;;;;;;;;;;12.30;99.90;;;;;;5140499;27;19954;-61
2023/04/06 06:09:32;;;;;;;;;;;12.30;99.90;;;;;;5140106;27;20010;-61
2023/04/06 06:11:59;;;;;;;;;;;12.30;99.90;;;;;;5140309;27;19998;-60
2023/04/06 06:14:28;;;;;;;;;;;12.20;99.90;;;;;;5140268;27;20033;-61
2023/04/06 06:16:54;;;;;;;;;;;12.40;99.90;;;;;;5140222;27;19914;-61
2023/04/06 06:19:19;;;;;;;;;;;12.40;99.90;;;;;;5139791;27;19907;-61
2023/04/06 06:21:45;;;;;;;;;;;12.40;99.90;;;;;;5140121;27;19914;-60
2023/04/06 06:24:11;;;;;;;;;;;12.40;99.90;;;;;;5139715;27;19912;-61
2023/04/06 06:26:37;;;;;;;;;;;12.40;99.90;;;;;;5139725;27;19919;-61
2023/04/06 06:29:05;;;;;;;;;;;12.40;99.90;;;;;;5140012;27;19908;-61
2023/04/06 06:31:30;;;;;;;;;;;12.40;99.90;;;;;;5140266;27;19992;-61
2023/04/06 06:33:56;;;;;;;;;;;12.40;99.90;;;;;;5139751;27;19911;-61
2023/04/06 06:36:22;;;;;;;;;;;12.40;99.90;;;;;;5139703;27;19914;-61
2023/04/06 06:38:47;;;;;;;;;;;12.50;99.90;;;;;;5139747;27;19914;-61
2023/04/06 06:41:13;;;;;;;;;;;12.40;99.90;;;;;;5139561;27;19969;-61
2023/04/06 06:43:39;;;;;;;;;;;12.40;99.90;;;;;;5139770;27;19907;-61
2023/04/06 06:46:05;;;;;;;;;;;12.50;99.90;;;;;;5139677;27;20369;-61
2023/04/06 06:48:31;;;;;;;;;;;12.50;99.90;;;;;;5139299;27;19915;-61
2023/04/06 06:50:56;;;;;;;;;;;12.50;99.90;;;;;;5139638;27;19908;-61
2023/04/06 06:53:22;;;;;;;;;;;12.60;99.90;;;;;;5139618;27;19907;-61
2023/04/06 06:55:51;;;;;;;;;;;12.50;99.90;;;;;;5139622;27;19930;-61
2023/04/06 06:58:20;;;;;;;;;;;12.50;99.90;;;;;;5139577;27;19956;-61
2023/04/06 07:00:45;;;;;;;;;;;12.50;99.90;;;;;;5139375;27;19907;-61
2023/04/06 07:03:11;;;;;;;;;;;12.50;99.90;;;;;;5139750;27;19998;-61
2023/04/06 07:05:37;;;;;;;;;;;12.50;99.90;;;;;;5139296;27;19907;-61
2023/04/06 07:08:02;;;;;;;;;;;12.50;99.90;;;;;;5139233;27;19919;-61
2023/04/06 07:10:28;;;;;;;;;;;12.50;99.90;;;;;;5139249;27;19915;-61
2023/04/06 07:12:54;;;;;;;;;;;12.60;99.90;;;;;;5139388;28;19912;-61
2023/04/06 07:15:19;;;;;;;;;;;12.50;99.90;;;;;;5139638;28;20271;-61
2023/04/06 07:17:45;;;;;;;;;;;12.60;99.90;;;;;;5139125;28;20013;-61
2023/04/06 07:20:11;;;;;;;;;;;12.60;99.90;;;;;;5139685;28;19907;-61
2023/04/06 07:22:40;;;;;;;;;;;12.60;99.90;;;;;;5139033;28;19908;-61
2023/04/06 07:25:06;;;;;;;;;;;12.60;99.90;;;;;;5139449;28;19956;-61
2023/04/06 07:27:32;;;;;;;;;;;12.70;99.90;;;;;;5139001;28;19919;-61
2023/04/06 07:29:57;;;;;;;;;;;12.60;99.90;;;;;;5138978;28;19913;-61
2023/04/06 07:32:23;;;;;;;;;;;12.70;99.90;;;;;;5138625;28;19915;-61
2023/04/06 07:34:49;;;;;;;;;;;12.80;99.90;;;;;;5138825;28;19908;-61
2023/04/06 07:37:14;;;;;;;;;;;12.80;99.90;;;;;;5138840;28;20060;-61
2023/04/06 07:39:40;;;;;;;;;;;12.80;99.90;;;;;;5138854;28;20022;-61
2023/04/06 07:42:06;;;;;;;;;;;12.80;99.90;;;;;;5138775;28;19915;-61
2023/04/06 07:44:31;;;;;;;;;;;12.90;99.90;;;;;;5138769;28;19961;-61
2023/04/06 07:46:57;;;;;;;;;;;12.90;99.90;;;;;;5138502;28;19918;-61
2023/04/06 07:49:23;;;;;;;;;;;12.90;99.90;;;;;;5140224;27;20347;-61
2023/04/06 07:51:48;;;;;;;;;;;12.90;99.90;;;;;;5142595;27;20591;-61
2023/04/06 07:54:14;;;;;;;;;;;13.00;99.90;;;;;;5142570;27;20001;-61
2023/04/06 07:56:40;;;;;;;;;;;13.00;99.90;;;;;;5123744;27;19911;-61
2023/04/06 07:59:06;;;;;;;;;;;12.90;99.90;;;;;;5142700;27;19957;-61
2023/04/06 08:01:32;;;;;;;;;;;12.90;99.90;;;;;;5142183;27;20002;-61
2023/04/06 08:03:58;;;;;;;;;;;12.90;99.90;;;;;;5142665;27;19913;-61
2023/04/06 08:06:24;;;;;;;;;;;13.00;99.90;;;;;;5142350;27;19922;-61
2023/04/06 08:08:50;;;;;;;;;;;12.90;99.90;;;;;;5142290;27;19908;-61
2023/04/06 08:11:15;;;;;;;;;;;13.00;99.90;;;;;;5142349;27;19953;-61
2023/04/06 08:13:41;;;;;;;;;;;13.00;99.90;;;;;;5142266;27;19908;-61
2023/04/06 08:16:07;;;;;;;;;;;13.00;99.90;;;;;;5142328;27;19907;-61
2023/04/06 08:18:32;;;;;;;;;;;13.00;99.90;;;;;;5142229;27;19960;-61
2023/04/06 08:20:58;;;;;;;;;;;13.10;99.90;;;;;;5142342;27;20362;-61
2023/04/06 08:23:23;;;;;;;;;;;13.20;99.90;;;;;;5141866;27;19933;-61
2023/04/06 08:25:49;;;;;;;;;;;13.10;99.90;;;;;;5141823;27;19907;-61
2023/04/06 08:28:15;;;;;;;;;;;13.20;99.90;;;;;;5141621;27;19920;-61
2023/04/06 08:30:42;;;;;;;;;;;13.20;99.90;;;;;;5141863;27;19907;-61
2023/04/06 08:33:08;;;;;;;;;;;13.20;99.90;;;;;;5141709;27;19941;-61
2023/04/06 08:35:34;;;;;;;;;;;13.30;99.90;;;;;;5141900;27;19908;-61
2023/04/06 08:37:59;;;;;;;;;;;13.40;99.90;;;;;;5141831;27;20294;-61
2023/04/06 08:40:25;;;;;;;;;;;13.30;99.90;;;;;;5141378;27;19943;-61
2023/04/06 08:42:59;;;;;;;;;;;13.30;99.90;;;;;;5141491;27;19915;-61
2023/04/06 08:45:25;;;;;;;;;;;13.30;99.90;;;;;;5141248;27;19912;-61
2023/04/06 08:47:52;;;;;;;;;;;13.30;99.90;;;;;;5141162;27;19950;-61
2023/04/06 08:50:18;;;;;;;;;;;13.50;99.90;;;;;;5141353;27;20294;-61
2023/04/06 08:52:44;;;;;;;;;;;13.50;99.90;;;;;;5141413;27;19907;-61
2023/04/06 08:55:10;;;;;;;;;;;13.50;99.90;;;;;;5141512;27;20255;-61
2023/04/06 08:57:36;;;;;;;;;;;13.60;99.90;;;;;;5141446;27;20023;-61
2023/04/06 09:00:02;;;;;;;;;;;13.60;99.90;;;;;;5141025;27;20374;-61
2023/04/06 09:02:27;;;;;;;;;;;13.60;99.90;;;;;;5141361;27;19994;-61
2023/04/06 09:04:54;;;;;;;;;;;13.60;99.90;;;;;;5141345;27;19947;-61
2023/04/06 09:07:20;;;;;;;;;;;13.60;99.90;;;;;;5140632;27;19918;-61
2023/04/06 09:09:49;;;;;;;;;;;13.60;99.90;;;;;;5141017;27;19907;-61
2023/04/06 09:12:28;;;;;;;;;;;13.50;99.90;;;;;;5140907;27;19917;-61
2023/04/06 09:14:54;;;;;;;;;;;13.50;99.90;;;;;;5140884;27;19912;-61
2023/04/06 09:17:20;;;;;;;;;;;13.50;99.90;;;;;;5140877;27;19952;-61
2023/04/06 09:19:46;;;;;;;;;;;13.50;99.90;;;;;;5140627;27;19908;-61
2023/04/06 09:22:12;;;;;;;;;;;13.50;99.90;;;;;;5140603;27;19914;-61
2023/04/06 09:24:41;;;;;;;;;;;13.50;99.90;;;;;;5140885;27;19908;-61
2023/04/06 09:27:06;;;;;;;;;;;13.60;99.90;;;;;;5140445;27;20378;-61
2023/04/06 09:29:33;;;;;;;;;;;13.70;99.90;;;;;;5140400;27;19907;-61
2023/04/06 09:32:02;;;;;;;;;;;14.10;99.90;;;;;;5140600;27;19911;-61
2023/04/06 09:34:29;;;;;;;;;;;14.10;99.90;;;;;;5140464;27;19907;-61
2023/04/06 09:36:55;;;;;;;;;;;14.50;99.90;;;;;;5140491;27;20250;-61
2023/04/06 09:39:25;;;;;;;;;;;14.70;99.90;;;;;;5140237;27;20412;-61
2023/04/06 09:41:51;;;;;;;;;;;15.00;99.90;;;;;;5140464;27;19915;-61
2023/04/06 09:44:17;;;;;;;;;;;15.00;99.90;;;;;;5140623;27;19908;-61
2023/04/06 09:46:43;;;;;;;;;;;15.10;99.90;;;;;;5140763;27;19918;-62
2023/04/06 09:49:10;;;;;;;;;;;15.10;99.90;;;;;;5140260;27;19953;-61
2023/04/06 09:51:35;;;;;;;;;;;15.20;99.90;;;;;;5140467;27;19907;-61
2023/04/06 09:54:04;;;;;;;;;;;15.20;99.90;;;;;;5140611;27;20311;-61
2023/04/06 09:56:48;;;;;;;;;;;15.20;99.90;;;;;;5140027;27;20002;-61
2023/04/06 09:59:19;;;;;;;;;;;15.30;99.90;;;;;;5140055;27;19943;-62
2023/04/06 10:01:46;;;;;;;;;;;15.00;99.90;;;;;;5140061;27;19907;-61
2023/04/06 10:04:21;;;;;;;;;;;15.00;99.90;;;;;;5140183;27;19908;-61
2023/04/06 10:06:52;;;;;;;;;;;15.00;99.90;;;;;;5140047;27;19958;-62
2023/04/06 10:09:18;;;;;;;;;;;15.00;99.90;;;;;;5139646;27;19914;-61
2023/04/06 10:11:44;;;;;;;;;;;15.00;99.90;;;;;;5139690;27;19907;-61
2023/04/06 10:14:11;;;;;;;;;;;14.90;99.90;;;;;;5139868;27;19964;-61
2023/04/06 10:16:37;;;;;;;;;;;14.90;99.90;;;;;;5139722;27;19913;-62
2023/04/06 10:19:09;;;;;;;;;;;15.00;99.90;;;;;;5140057;27;19958;-61
2023/04/06 10:21:35;;;;;;;;;;;15.10;99.90;;;;;;5120990;27;20442;-61
2023/04/06 10:24:02;;;;;;;;;;;14.90;99.90;;;;;;5139838;27;19918;-61
2023/04/06 10:26:27;;;;;;;;;;;15.10;99.90;;;;;;5139700;27;19971;-61
2023/04/06 10:28:55;;;;;;;;;;;15.20;99.90;;;;;;5139803;27;19915;-61
2023/04/06 10:31:24;;;;;;;;;;;15.30;99.90;;;;;;5139530;27;19990;-61
2023/04/06 10:34:08;;;;;;;;;;;15.50;99.90;;;;;;5139086;27;20319;-61
2023/04/06 10:36:34;;;;;;;;;;;15.60;99.90;;;;;;5139520;27;19907;-61
2023/04/06 10:39:02;;;;;;;;;;;16.10;99.90;;;;;;5139121;27;19911;-62
2023/04/06 10:41:34;;;;;;;;;;;16.50;99.90;;;;;;5139238;27;19915;-62
2023/04/06 10:44:01;;;;;;;;;;;16.40;99.90;;;;;;5139028;27;20340;-61
2023/04/06 10:46:27;;;;;;;;;;;16.50;99.90;;;;;;5139287;27;19911;-61
2023/04/06 10:48:53;;;;;;;;;;;16.80;99.90;;;;;;5138933;27;20385;-61
2023/04/06 10:51:20;;;;;;;;;;;17.40;99.90;;;;;;5139063;27;20096;-62
2023/04/06 10:53:47;;;;;;;;;;;18.00;99.90;;;;;;5138901;27;20328;-62
2023/04/06 10:56:14;;;;;;;;;;;18.50;99.90;;;;;;5139045;27;19914;-62
2023/04/06 10:58:46;;;;;;;;;;;18.50;99.90;;;;;;5138828;27;19915;-62
2023/04/06 11:01:12;;;;;;;;;;;18.50;99.90;;;;;;5138896;27;19915;-62
2023/04/06 11:03:49;;;;;;;;;;;18.90;99.90;;;;;;5139434;27;19908;-62
2023/04/06 11:06:29;;;;;;;;;;;19.10;99.90;;;;;;5138549;27;20410;-62
2023/04/06 11:08:55;;;;;;;;;;;19.30;99.90;;;;;;5139095;27;19916;-62
2023/04/06 11:11:21;;;;;;;;;;;19.30;99.90;;;;;;5139381;27;19942;-62
2023/04/06 11:13:51;;;;;;;;;;;20.00;99.90;;;;;;5139008;28;19946;-62
2023/04/06 11:16:18;;;;;;;;;;;19.80;99.90;;;;;;5138996;28;19952;-62
2023/04/06 11:19:03;;;;;;;;;;;19.80;99.90;;;;;;5138781;28;19911;-62
2023/04/06 11:21:33;;;;;;;;;;;19.80;99.90;;;;;;5138954;28;19915;-61
2023/04/06 11:24:12;;;;;;;;;;;19.90;99.90;;;;;;5139767;27;19998;-62
2023/04/06 11:26:38;;;;;;;;;;;20.60;99.90;;;;;;5142803;27;19919;-62
2023/04/06 11:29:04;;;;;;;;;;;21.30;99.90;;;;;;5142927;27;20643;-62
2023/04/06 11:31:29;;;;;;;;;;;22.50;99.90;;;;;;5142779;27;19908;-62
2023/04/06 11:33:56;;;;;;;;;;;23.40;99.90;;;;;;5142801;27;19908;-62
2023/04/06 11:36:21;;;;;;;;;;;22.70;91.00;;;;;;5143333;27;19914;-62
2023/04/06 11:38:47;;;;;;;;;;;21.80;89.30;;;;;;5142795;27;20248;-62
2023/04/06 11:41:13;;;;;;;;;;;22.10;99.40;;;;;;5143046;27;19908;-62
2023/04/06 11:43:45;;;;;;;;;;;22.80;99.90;;;;;;5142742;27;19908;-62
2023/04/06 11:46:16;;;;;;;;;;;23.30;98.30;;;;;;5142853;27;19911;-62
2023/04/06 11:48:45;;;;;;;;;;;24.00;99.90;;;;;;5142885;27;19908;-62
2023/04/06 11:51:11;;;;;;;;;;;23.80;92.30;;;;;;5142704;27;19908;-62
2023/04/06 11:53:44;;;;;;;;;;;23.60;98.90;;;;;;5142809;27;19951;-62
2023/04/06 11:56:09;;;;;;;;;;;23.40;82.10;;;;;;5142403;27;19915;-62
2023/04/06 11:58:35;;;;;;;;;;;23.40;96.90;;;;;;5142673;27;19908;-62
2023/04/06 12:01:04;;;;;;;;;;;23.30;88.00;;;;;;5142914;27;20281;-62
2023/04/06 12:03:30;;;;;;;;;;;22.90;98.10;;;;;;5142215;27;19956;-62
2023/04/06 12:05:55;;;;;;;;;;;21.50;93.30;;;;;;5142096;27;19907;-62
2023/04/06 12:08:25;;;;;;;;;;;21.10;92.30;;;;;;5142298;27;19911;-62
2023/04/06 12:10:50;;;;;;;;;;;20.50;96.60;;;;;;5142431;27;19956;-62
2023/04/06 12:13:16;;;;;;;;;;;19.90;92.00;;;;;;5142665;27;19912;-62
2023/04/06 12:15:42;;;;;;;;;;;19.20;99.90;;;;;;5142350;27;19908;-62
2023/04/06 12:18:07;;;;;;;;;;;19.50;99.90;;;;;;5142135;27;19915;-62
2023/04/06 12:20:33;;;;;;;;;;;20.00;99.90;;;;;;5141995;27;19907;-62
2023/04/06 12:22:59;;;;;;;;;;;20.70;99.90;;;;;;5142041;27;20341;-62
2023/04/06 12:25:25;;;;;;;;;;;20.90;93.50;;;;;;5141824;27;19911;-62
2023/04/06 12:27:50;;;;;;;;;;;21.70;99.90;;;;;;5141535;27;19924;-62
2023/04/06 12:30:16;;;;;;;;;;;21.80;98.20;;;;;;5141857;27;19908;-62
2023/04/06 12:32:41;;;;;;;;;;;21.60;99.10;;;;;;5141892;27;20278;-62
2023/04/06 12:35:08;;;;;;;;;;;21.10;95.30;;;;;;5141235;27;19907;-62
2023/04/06 12:37:34;;;;;;;;;;;20.70;92.00;;;;;;5123173;27;19914;-62
2023/04/06 12:40:00;;;;;;;;;;;20.10;97.60;;;;;;5141855;27;20343;-62
2023/04/06 12:42:26;;;;;;;;;;;19.60;95.00;;;;;;5142156;27;19915;-62
2023/04/06 12:44:51;;;;;;;;;;;19.40;98.00;;;;;;5141795;27;19939;-62
2023/04/06 12:47:17;;;;;;;;;;;19.10;98.80;;;;;;5141796;27;20009;-62
2023/04/06 12:49:43;;;;;;;;;;;19.30;99.90;;;;;;5141641;27;19907;-62
2023/04/06 12:52:09;;;;;;;;;;;19.30;99.90;;;;;;5141486;27;19907;-62
2023/04/06 12:54:35;;;;;;;;;;;19.60;99.90;;;;;;5141428;27;19911;-62
2023/04/06 12:57:01;;;;;;;;;;;19.70;99.90;;;;;;5141163;27;19907;-62
2023/04/06 12:59:27;;;;;;;;;;;19.60;99.90;;;;;;5141524;27;19915;-62
2023/04/06 13:01:53;;;;;;;;;;;19.90;99.90;;;;;;5141426;27;19907;-62
2023/04/06 13:04:19;;;;;;;;;;;20.40;99.90;;;;;;5141391;27;19993;-62
2023/04/06 13:06:45;;;;;;;;;;;20.40;99.90;;;;;;5141135;27;20384;-62
2023/04/06 13:09:10;;;;;;;;;;;19.80;98.50;;;;;;5141185;27;19907;-62
2023/04/06 13:11:36;;;;;;;;;;;19.70;99.90;;;;;;5141486;27;19907;-62
2023/04/06 13:14:02;;;;;;;;;;;19.00;99.90;;;;;;5140849;27;19907;-62
2023/04/06 13:16:27;;;;;;;;;;;19.00;99.90;;;;;;5141166;27;19908;-62
2023/04/06 13:18:53;;;;;;;;;;;19.50;99.90;;;;;;5140714;27;19943;-62
2023/04/06 13:21:20;;;;;;;;;;;20.10;99.90;;;;;;5141101;27;19915;-62
2023/04/06 13:23:46;;;;;;;;;;;20.70;99.90;;;;;;5140898;27;19907;-62
2023/04/06 13:26:13;;;;;;;;;;;21.10;97.10;;;;;;5140590;27;19954;-62
2023/04/06 13:28:39;;;;;;;;;;;21.30;89.00;;;;;;5140801;27;19915;-62
2023/04/06 13:31:05;;;;;;;;;;;21.20;94.00;;;;;;5122935;27;19995;-62
2023/04/06 13:33:30;;;;;;;;;;;20.50;85.70;;;;;;5140880;27;19907;-62
2023/04/06 13:35:57;;;;;;;;;;;20.00;82.90;;;;;;5141064;27;19908;-62
2023/04/06 13:38:24;;;;;;;;;;;19.50;77.10;;;;;;5139868;27;20205;-62
2023/04/06 13:40:51;;;;;;;;;;;19.70;86.60;;;;;;5140702;27;19929;-62
2023/04/06 13:43:19;;;;;;;;;;;20.20;91.90;;;;;;5140235;27;19907;-62
2023/04/06 13:45:51;;;;;;;;;;;20.20;77.50;;;;;;5140228;27;19914;-62
2023/04/06 13:48:17;;;;;;;;;;;20.30;70.10;;;;;;5139036;27;19918;-62
2023/04/06 13:50:43;;;;;;;;;;;20.50;78.60;;;;;;5140446;27;20370;-62
2023/04/06 13:53:09;;;;;;;;;;;20.70;84.70;;;;;;5140424;27;20378;-62
2023/04/06 13:55:34;;;;;;;;;;;20.60;69.20;;;;;;5140378;27;19911;-62
2023/04/06 13:58:00;;;;;;;;;;;20.80;88.60;;;;;;5139929;27;20014;-62
2023/04/06 14:00:26;;;;;;;;;;;21.10;79.70;;;;;;5140076;27;19907;-62
2023/04/06 14:02:53;;;;;;;;;;;21.00;74.60;;;;;;5140161;27;20386;-62
2023/04/06 14:05:19;;;;;;;;;;;20.70;72.80;;;;;;5139981;27;19914;-62
2023/04/06 14:07:44;;;;;;;;;;;20.60;73.60;;;;;;5139660;27;19915;-62
2023/04/06 14:10:13;;;;;;;;;;;20.80;76.90;;;;;;5139888;27;19912;-62